createdAt,value
2019-01-28T00:01:25.649Z,99.99
2019-01-28T00:02:25.564Z,99.99
2019-01-28T00:04:18.335Z,99.99
2019-01-28T00:05:18.260Z,99.99
2019-01-28T00:07:11.030Z,99.99
2019-01-28T00:08:10.950Z,99.99
2019-01-28T00:10:03.812Z,99.99
2019-01-28T00:11:03.716Z,99.99
2019-01-28T00:12:56.478Z,99.99
2019-01-28T00:13:56.388Z,99.99
2019-01-28T00:15:49.201Z,99.99
2019-01-28T00:16:49.088Z,99.99
2019-01-28T00:18:41.887Z,99.99
2019-01-28T00:19:41.786Z,99.99
2019-01-28T00:21:35.158Z,99.99
2019-01-28T00:22:34.981Z,99.99
2019-01-28T00:24:27.811Z,99.99
2019-01-28T00:25:27.703Z,99.99
2019-01-28T00:27:20.480Z,99.99
2019-01-28T00:28:20.398Z,99.99
2019-01-28T00:30:13.196Z,99.99
2019-01-28T00:31:13.104Z,99.99
2019-01-28T00:33:05.949Z,99.99
2019-01-28T00:34:05.861Z,99.99
2019-01-28T00:35:58.645Z,99.99
2019-01-28T00:36:58.560Z,99.99
2019-01-28T00:38:51.360Z,99.99
2019-01-28T00:39:51.286Z,99.99
2019-01-28T00:41:44.069Z,99.99
2019-01-28T00:42:43.992Z,99.99
2019-01-28T00:44:37.645Z,99.99
2019-01-28T00:45:37.529Z,99.99
2019-01-28T00:47:30.308Z,99.99
2019-01-28T00:48:30.254Z,99.99
2019-01-28T00:50:23.047Z,99.99
2019-01-28T00:51:22.929Z,99.99
2019-01-28T00:53:15.699Z,99.99
2019-01-28T00:54:15.624Z,99.99
2019-01-28T00:56:08.393Z,99.99
2019-01-28T00:57:08.363Z,99.99
2019-01-28T00:59:01.095Z,99.99
2019-01-28T01:00:01.007Z,99.99
2019-01-28T01:01:53.813Z,99.99
2019-01-28T01:02:53.711Z,99.99
2019-01-28T01:04:46.516Z,99.99
2019-01-28T01:05:46.438Z,99.99
2019-01-28T01:07:39.220Z,99.99
2019-01-28T01:08:39.138Z,99.99
2019-01-28T01:10:31.962Z,99.99
2019-01-28T01:11:31.839Z,99.99
2019-01-28T01:13:24.633Z,99.99
2019-01-28T01:14:24.550Z,99.99
2019-01-28T01:16:17.348Z,99.99
2019-01-28T01:17:17.261Z,99.99
2019-01-28T01:19:10.045Z,99.99
2019-01-28T01:20:09.963Z,99.99
2019-01-28T01:22:02.774Z,99.99
2019-01-28T01:23:02.661Z,99.99
2019-01-28T01:24:55.463Z,99.99
2019-01-28T01:25:55.354Z,99.99
2019-01-28T01:27:48.123Z,99.99
2019-01-28T01:28:48.050Z,99.99
2019-01-28T01:30:40.837Z,99.99
2019-01-28T01:31:40.747Z,99.99
2019-01-28T01:33:33.523Z,99.99
2019-01-28T01:34:33.441Z,99.99
2019-01-28T01:36:26.260Z,99.99
2019-01-28T01:37:26.146Z,99.99
2019-01-28T01:39:18.962Z,99.99
2019-01-28T01:40:18.859Z,99.99
2019-01-28T01:42:11.603Z,99.99
2019-01-28T01:43:11.531Z,99.99
2019-01-28T01:45:04.313Z,99.99
2019-01-28T01:46:04.229Z,99.99
2019-01-28T01:47:57.062Z,99.99
2019-01-28T01:48:56.943Z,99.99
2019-01-28T01:50:49.707Z,99.99
2019-01-28T01:51:49.622Z,99.99
2019-01-28T01:53:42.442Z,99.99
2019-01-28T01:54:42.313Z,99.99
2019-01-28T01:57:07.790Z,99.99
2019-01-28T01:58:07.654Z,99.99
2019-01-28T02:00:00.496Z,99.99
2019-01-28T02:01:00.395Z,99.99
2019-01-28T02:02:53.243Z,99.99
2019-01-28T02:03:53.093Z,99.99
2019-01-28T02:05:45.852Z,99.99
2019-01-28T02:06:45.771Z,99.99
2019-01-28T02:08:38.602Z,99.99
2019-01-28T02:09:38.535Z,99.99
2019-01-28T02:11:31.309Z,99.99
2019-01-28T02:12:31.256Z,99.99
2019-01-28T02:14:23.995Z,99.99
2019-01-28T02:15:23.916Z,99.99
2019-01-28T02:17:16.669Z,99.99
2019-01-28T02:18:16.600Z,99.99
2019-01-28T02:20:09.394Z,99.99
2019-01-28T02:21:09.297Z,99.99
2019-01-28T02:23:02.047Z,99.99
2019-01-28T02:24:01.991Z,99.99
2019-01-28T02:25:54.743Z,99.99
2019-01-28T02:26:54.661Z,99.99
2019-01-28T02:28:47.424Z,99.99
2019-01-28T02:29:47.347Z,99.99
2019-01-28T02:31:40.114Z,99.99
2019-01-28T02:32:40.045Z,99.99
2019-01-28T02:34:32.794Z,99.99
2019-01-28T02:35:32.719Z,99.99
2019-01-28T02:37:25.461Z,99.99
2019-01-28T02:38:25.393Z,99.99
2019-01-28T02:40:18.156Z,99.99
2019-01-28T02:41:18.080Z,99.99
2019-01-28T02:43:10.841Z,99.99
2019-01-28T02:44:10.887Z,99.99
2019-01-28T02:46:03.533Z,99.99
2019-01-28T02:47:03.454Z,99.99
2019-01-28T02:48:56.232Z,99.99
2019-01-28T02:49:56.255Z,99.99
2019-01-28T02:51:49.094Z,99.99
2019-01-28T02:52:48.955Z,99.99
2019-01-28T02:54:41.645Z,99.99
2019-01-28T02:55:41.555Z,99.99
2019-01-28T02:57:34.396Z,99.99
2019-01-28T02:58:34.292Z,99.99
2019-01-28T03:00:27.034Z,99.99
2019-01-28T03:01:26.951Z,99.99
2019-01-28T03:03:19.700Z,99.99
2019-01-28T03:04:19.636Z,99.99
2019-01-28T03:06:12.403Z,99.99
2019-01-28T03:07:12.394Z,99.99
2019-01-28T03:09:05.071Z,99.99
2019-01-28T03:10:05.003Z,99.99
2019-01-28T03:11:57.840Z,99.99
2019-01-28T03:12:57.682Z,99.99
2019-01-28T03:14:50.947Z,99.99
2019-01-28T03:15:50.981Z,99.99
2019-01-28T03:17:43.617Z,99.99
2019-01-28T03:18:43.551Z,99.99
2019-01-28T03:20:36.353Z,99.99
2019-01-28T03:21:36.224Z,99.99
2019-01-28T03:23:41.876Z,99.99
2019-01-28T03:24:41.918Z,99.99
2019-01-28T03:26:34.586Z,99.99
2019-01-28T03:27:34.513Z,99.99
2019-01-28T03:29:27.341Z,99.99
2019-01-28T03:30:27.313Z,99.99
2019-01-28T03:32:20.126Z,99.99
2019-01-28T03:33:20.039Z,99.99
2019-01-28T03:35:12.801Z,99.99
2019-01-28T03:36:12.731Z,99.99
2019-01-28T03:38:05.491Z,99.99
2019-01-28T03:39:05.452Z,99.99
2019-01-28T03:40:58.277Z,99.99
2019-01-28T03:41:58.218Z,99.99
2019-01-28T03:43:51.124Z,99.99
2019-01-28T03:44:50.974Z,99.99
2019-01-28T03:46:43.707Z,99.99
2019-01-28T03:47:43.626Z,99.99
2019-01-28T03:49:36.484Z,99.99
2019-01-28T03:50:36.412Z,99.99
2019-01-28T03:52:29.179Z,99.99
2019-01-28T03:53:29.091Z,99.99
2019-01-28T03:55:21.932Z,99.99
2019-01-28T03:56:21.933Z,99.99
2019-01-28T03:58:14.655Z,99.99
2019-01-28T03:59:14.578Z,99.99
2019-01-28T04:01:07.347Z,99.99
2019-01-28T04:02:07.312Z,99.99
2019-01-28T04:04:00.063Z,99.99
2019-01-28T04:04:59.954Z,99.99
2019-01-28T04:06:52.798Z,99.99
2019-01-28T04:07:52.694Z,99.99
2019-01-28T04:09:45.423Z,99.99
2019-01-28T04:10:45.353Z,99.99
2019-01-28T04:12:38.272Z,99.99
2019-01-28T04:13:38.075Z,99.99
2019-01-28T04:15:32.512Z,99.99
2019-01-28T04:16:30.756Z,99.99
2019-01-28T04:18:23.637Z,99.99
2019-01-28T04:19:23.556Z,99.99
2019-01-28T04:21:16.315Z,99.99
2019-01-28T04:22:16.248Z,99.99
2019-01-28T04:24:08.990Z,99.99
2019-01-28T04:25:08.915Z,99.99
2019-01-28T04:27:01.696Z,99.99
2019-01-28T04:28:01.643Z,99.99
2019-01-28T04:29:56.122Z,99.99
2019-01-28T04:30:56.052Z,99.99
2019-01-28T04:32:48.814Z,99.99
2019-01-28T04:33:48.740Z,99.99
2019-01-28T04:35:41.493Z,99.99
2019-01-28T04:36:41.432Z,99.99
2019-01-28T04:38:34.199Z,99.99
2019-01-28T04:39:34.121Z,99.99
2019-01-28T04:41:26.923Z,99.99
2019-01-28T04:42:26.845Z,99.99
2019-01-28T04:44:20.160Z,99.99
2019-01-28T04:45:19.661Z,99.99
2019-01-28T04:47:12.411Z,99.99
2019-01-28T04:48:12.441Z,99.99
2019-01-28T04:50:05.073Z,99.99
2019-01-28T04:51:05.003Z,99.99
2019-01-28T04:52:57.787Z,99.99
2019-01-28T04:53:57.704Z,99.99
2019-01-28T04:55:50.461Z,99.99
2019-01-28T04:56:50.398Z,99.99
2019-01-28T04:58:43.168Z,99.99
2019-01-28T04:59:43.078Z,99.99
2019-01-28T05:01:36.002Z,99.99
2019-01-28T05:02:35.783Z,99.99
2019-01-28T05:04:28.610Z,99.99
2019-01-28T05:05:28.472Z,99.99
2019-01-28T05:07:21.237Z,99.99
2019-01-28T05:08:21.153Z,99.99
2019-01-28T05:10:13.908Z,99.99
2019-01-28T05:11:13.864Z,99.99
2019-01-28T05:13:06.661Z,99.99
2019-01-28T05:14:06.577Z,99.99
2019-01-28T05:15:59.336Z,99.99
2019-01-28T05:16:59.263Z,99.99
2019-01-28T05:18:52.092Z,99.99
2019-01-28T05:19:51.994Z,99.99
2019-01-28T05:21:44.763Z,99.99
2019-01-28T05:22:44.698Z,99.99
2019-01-28T05:24:37.484Z,99.99
2019-01-28T05:25:37.411Z,99.99
2019-01-28T05:27:30.277Z,99.99
2019-01-28T05:28:30.183Z,99.99
2019-01-28T05:30:23.006Z,99.99
2019-01-28T05:31:22.935Z,99.99
2019-01-28T05:33:15.713Z,99.99
2019-01-28T05:34:15.621Z,99.99
2019-01-28T05:36:08.440Z,99.99
2019-01-28T05:37:08.297Z,99.99
2019-01-28T05:39:01.099Z,99.99
2019-01-28T05:40:00.988Z,99.99
2019-01-28T05:41:53.866Z,99.99
2019-01-28T05:42:53.794Z,99.99
2019-01-28T05:44:46.586Z,99.99
2019-01-28T05:45:46.600Z,99.99
2019-01-28T05:47:39.338Z,99.99
2019-01-28T05:48:39.252Z,99.99
2019-01-28T05:50:32.007Z,99.99
2019-01-28T05:51:31.943Z,99.99
2019-01-28T05:53:24.746Z,99.99
2019-01-28T05:54:24.644Z,99.99
2019-01-28T05:56:17.401Z,99.99
2019-01-28T05:57:17.302Z,99.99
2019-01-28T05:59:10.078Z,99.99
2019-01-28T06:00:09.995Z,99.99
2019-01-28T06:02:02.768Z,99.99
2019-01-28T06:03:02.689Z,99.99
2019-01-28T06:04:55.546Z,99.99
2019-01-28T06:05:55.487Z,99.99
2019-01-28T06:07:48.249Z,99.99
2019-01-28T06:08:48.167Z,99.99
2019-01-28T06:10:40.915Z,99.99
2019-01-28T06:11:40.844Z,99.99
2019-01-28T06:13:33.616Z,99.99
2019-01-28T06:14:34.702Z,99.99
2019-01-28T06:16:26.315Z,99.99
2019-01-28T06:17:26.239Z,99.99
2019-01-28T06:19:18.994Z,99.99
2019-01-28T06:20:18.910Z,99.99
2019-01-28T06:22:11.682Z,99.99
2019-01-28T06:23:11.589Z,99.99
2019-01-28T06:25:04.350Z,99.99
2019-01-28T06:26:04.284Z,99.99
2019-01-28T06:27:57.036Z,99.99
2019-01-28T06:28:56.970Z,99.99
2019-01-28T06:30:49.735Z,99.99
2019-01-28T06:31:49.647Z,99.99
2019-01-28T06:33:42.467Z,99.99
2019-01-28T06:34:42.389Z,99.99
2019-01-28T06:36:35.122Z,99.99
2019-01-28T06:37:35.054Z,99.99
2019-01-28T06:39:27.945Z,99.99
2019-01-28T06:40:27.756Z,99.99
2019-01-28T06:42:20.536Z,99.99
2019-01-28T06:43:20.431Z,99.99
2019-01-28T06:45:13.703Z,99.99
2019-01-28T06:46:13.605Z,99.99
2019-01-28T06:48:06.375Z,99.99
2019-01-28T06:49:06.305Z,99.99
2019-01-28T06:50:59.073Z,99.99
2019-01-28T06:51:58.982Z,99.99
2019-01-28T06:53:51.735Z,99.99
2019-01-28T06:54:51.662Z,99.99
2019-01-28T06:56:44.411Z,99.99
2019-01-28T06:57:44.330Z,99.99
2019-01-28T06:59:37.084Z,99.99
2019-01-28T07:00:37.007Z,99.99
2019-01-28T07:02:29.778Z,99.99
2019-01-28T07:03:29.710Z,99.99
2019-01-28T07:05:22.432Z,99.99
2019-01-28T07:06:22.358Z,99.99
2019-01-28T07:08:15.157Z,99.99
2019-01-28T07:09:15.073Z,99.99
2019-01-28T07:11:08.148Z,99.99
2019-01-28T07:12:08.069Z,99.99
2019-01-28T07:14:00.831Z,99.99
2019-01-28T07:15:00.754Z,99.99
2019-01-28T07:16:53.593Z,99.99
2019-01-28T07:17:55.084Z,99.99
2019-01-28T07:19:46.252Z,99.99
2019-01-28T07:20:46.146Z,99.99
2019-01-28T07:22:38.915Z,99.99
2019-01-28T07:23:38.808Z,99.99
2019-01-28T07:25:31.540Z,99.99
2019-01-28T07:26:31.501Z,99.99
2019-01-28T07:28:24.282Z,99.99
2019-01-28T07:29:24.231Z,99.99
2019-01-28T07:31:17.070Z,99.99
2019-01-28T07:32:16.886Z,99.99
2019-01-28T07:34:09.645Z,99.99
2019-01-28T07:35:09.541Z,99.99
2019-01-28T07:37:02.296Z,99.99
2019-01-28T07:38:02.210Z,99.99
2019-01-28T07:39:55.012Z,99.99
2019-01-28T07:40:54.956Z,99.99
2019-01-28T07:42:47.681Z,99.99
2019-01-28T07:43:47.601Z,99.99
2019-01-28T07:45:45.310Z,99.99
2019-01-28T07:46:40.282Z,99.99
2019-01-28T07:48:33.089Z,99.99
2019-01-28T07:49:32.987Z,99.99
2019-01-28T07:51:25.792Z,99.99
2019-01-28T07:52:25.721Z,99.99
2019-01-28T07:54:18.425Z,99.99
2019-01-28T07:55:18.412Z,99.99
2019-01-28T07:57:11.124Z,99.99
2019-01-28T07:58:11.035Z,99.99
2019-01-28T08:00:03.810Z,99.99
2019-01-28T08:01:03.757Z,99.99
2019-01-28T08:02:56.516Z,99.99
2019-01-28T08:03:56.440Z,99.99
2019-01-28T08:05:49.273Z,99.99
2019-01-28T08:06:49.143Z,99.99
2019-01-28T08:08:41.887Z,99.99
2019-01-28T08:09:41.820Z,99.99
2019-01-28T08:11:34.554Z,99.99
2019-01-28T08:12:34.478Z,99.99
2019-01-28T08:14:27.249Z,99.99
2019-01-28T08:15:27.150Z,99.99
2019-01-28T08:17:19.996Z,99.99
2019-01-28T08:18:19.834Z,99.99
2019-01-28T08:20:12.621Z,99.99
2019-01-28T08:21:12.550Z,99.99
2019-01-28T08:23:05.354Z,99.99
2019-01-28T08:24:05.236Z,99.99
2019-01-28T08:25:57.998Z,99.99
2019-01-28T08:26:57.926Z,99.99
2019-01-28T08:28:50.703Z,99.99
2019-01-28T08:29:50.615Z,99.99
2019-01-28T08:31:43.405Z,99.99
2019-01-28T08:32:43.307Z,99.99
2019-01-28T08:34:36.093Z,99.99
2019-01-28T08:35:36.017Z,99.99
2019-01-28T08:37:28.931Z,99.99
2019-01-28T08:38:28.723Z,99.99
2019-01-28T08:40:21.514Z,99.99
2019-01-28T08:41:21.427Z,99.99
2019-01-28T08:43:14.664Z,99.99
2019-01-28T08:44:14.132Z,99.99
2019-01-28T08:46:06.898Z,99.99
2019-01-28T08:47:06.847Z,99.99
2019-01-28T08:48:59.746Z,99.99
2019-01-28T08:49:59.578Z,99.99
2019-01-28T08:51:52.297Z,99.99
2019-01-28T08:52:52.235Z,99.99
2019-01-28T08:54:45.017Z,99.99
2019-01-28T08:55:44.937Z,99.99
2019-01-28T08:57:37.836Z,99.99
2019-01-28T08:58:37.733Z,99.99
2019-01-28T09:00:30.563Z,99.99
2019-01-28T09:01:30.492Z,99.99
2019-01-28T09:03:23.293Z,99.99
2019-01-28T09:04:23.241Z,99.99
2019-01-28T09:06:16.021Z,99.99
2019-01-28T09:07:16.355Z,99.99
2019-01-28T09:09:08.745Z,99.99
2019-01-28T09:10:08.650Z,99.99
2019-01-28T09:12:01.424Z,99.99
2019-01-28T09:13:01.367Z,99.99
2019-01-28T09:14:54.232Z,99.99
2019-01-28T09:15:54.080Z,99.99
2019-01-28T09:17:46.883Z,99.99
2019-01-28T09:18:46.793Z,99.99
2019-01-28T09:20:39.580Z,99.99
2019-01-28T09:21:39.506Z,99.99
2019-01-28T09:23:32.299Z,99.99
2019-01-28T09:24:32.230Z,99.99
2019-01-28T09:26:25.008Z,99.99
2019-01-28T09:27:24.944Z,99.99
2019-01-28T09:29:17.748Z,99.99
2019-01-28T09:30:17.698Z,99.99
2019-01-28T09:32:10.442Z,99.99
2019-01-28T09:33:10.381Z,99.99
2019-01-28T09:35:03.181Z,96.84
2019-01-28T09:36:03.170Z,96.08
2019-01-28T09:37:55.907Z,94.93
2019-01-28T09:38:55.844Z,95.03
2019-01-28T09:40:48.678Z,95.75
2019-01-28T09:41:48.550Z,96.94
2019-01-28T09:43:41.372Z,97.80
2019-01-28T09:44:41.281Z,99.99
2019-01-28T09:46:34.064Z,99.23
2019-01-28T09:47:34.052Z,99.61
2019-01-28T09:49:26.820Z,95.89
2019-01-28T09:50:26.741Z,97.51
2019-01-28T09:52:19.520Z,97.89
2019-01-28T09:53:19.453Z,96.75
2019-01-28T09:55:12.322Z,95.03
2019-01-28T09:56:12.176Z,96.75
2019-01-28T09:58:04.989Z,98.46
2019-01-28T09:59:04.958Z,98.32
2019-01-28T10:00:57.713Z,98.13
2019-01-28T10:01:57.720Z,94.89
2019-01-28T10:03:50.443Z,94.31
2019-01-28T10:04:50.363Z,94.27
2019-01-28T10:06:43.142Z,90.50
2019-01-28T10:07:43.074Z,90.73
2019-01-28T10:09:35.884Z,91.26
2019-01-28T10:10:35.810Z,91.55
2019-01-28T10:12:28.597Z,93.02
2019-01-28T10:13:28.543Z,91.26
2019-01-28T10:15:21.353Z,91.50
2019-01-28T10:16:21.267Z,94.22
2019-01-28T10:18:14.115Z,91.41
2019-01-28T10:19:13.989Z,91.50
2019-01-28T10:21:06.798Z,90.93
2019-01-28T10:22:06.719Z,91.50
2019-01-28T10:23:59.517Z,92.93
2019-01-28T10:24:59.423Z,95.79
2019-01-28T10:26:52.220Z,97.75
2019-01-28T10:27:52.191Z,97.94
2019-01-28T10:29:44.961Z,97.56
2019-01-28T10:30:44.885Z,99.08
2019-01-28T10:32:37.676Z,98.79
2019-01-28T10:33:37.601Z,98.89
2019-01-28T10:35:30.423Z,99.99
2019-01-28T10:36:34.202Z,97.61
2019-01-28T10:38:23.096Z,97.22
2019-01-28T10:39:23.030Z,96.32
2019-01-28T10:41:15.840Z,97.75
2019-01-28T10:42:15.769Z,99.99
2019-01-28T10:44:10.300Z,99.08
2019-01-28T10:45:08.523Z,99.27
2019-01-28T10:47:01.284Z,99.08
2019-01-28T10:48:01.426Z,95.46
2019-01-28T10:49:54.001Z,94.36
2019-01-28T10:50:53.923Z,91.83
2019-01-28T10:52:46.726Z,89.40
2019-01-28T10:53:46.657Z,90.03
2019-01-28T10:55:39.457Z,92.83
2019-01-28T10:56:39.384Z,91.21
2019-01-28T10:58:32.137Z,89.93
2019-01-28T10:59:32.084Z,91.64
2019-01-28T11:01:24.889Z,92.84
2019-01-28T11:02:24.803Z,92.08
2019-01-28T11:04:17.607Z,94.08
2019-01-28T11:05:17.514Z,94.79
2019-01-28T11:07:10.340Z,92.69
2019-01-28T11:08:10.367Z,92.12
2019-01-28T11:10:03.122Z,92.89
2019-01-28T11:11:03.081Z,96.22
2019-01-28T11:12:55.896Z,99.99
2019-01-28T11:13:55.723Z,99.99
2019-01-28T11:15:48.519Z,99.99
2019-01-28T11:16:48.443Z,99.99
2019-01-28T11:18:41.249Z,99.99
2019-01-28T11:19:41.171Z,99.99
2019-01-28T11:21:34.086Z,99.99
2019-01-28T11:22:33.950Z,99.99
2019-01-28T11:24:26.673Z,99.99
2019-01-28T11:25:26.586Z,99.99
2019-01-28T11:27:19.451Z,99.99
2019-01-28T11:28:19.324Z,99.99
2019-01-28T11:30:12.056Z,99.99
2019-01-28T11:31:12.042Z,99.99
2019-01-28T11:33:04.866Z,99.99
2019-01-28T11:34:04.686Z,99.99
2019-01-28T11:36:05.023Z,99.99
2019-01-28T11:36:57.382Z,99.99
2019-01-28T11:38:50.189Z,99.99
2019-01-28T11:39:50.211Z,99.99
2019-01-28T11:41:42.933Z,99.99
2019-01-28T11:42:42.816Z,99.99
2019-01-28T11:44:35.666Z,99.99
2019-01-28T11:45:35.653Z,99.99
2019-01-28T11:47:28.323Z,99.99
2019-01-28T11:48:28.248Z,99.99
2019-01-28T11:50:20.988Z,99.99
2019-01-28T11:51:20.910Z,99.99
2019-01-28T11:53:13.666Z,99.99
2019-01-28T11:54:13.636Z,99.99
2019-01-28T11:56:06.488Z,99.99
2019-01-28T11:57:06.292Z,99.99
2019-01-28T11:58:59.073Z,99.99
2019-01-28T11:59:59.001Z,99.99
2019-01-28T12:01:51.768Z,99.99
2019-01-28T12:02:51.685Z,99.99
2019-01-28T12:04:44.465Z,99.99
2019-01-28T12:05:44.382Z,99.99
2019-01-28T12:07:37.158Z,99.99
2019-01-28T12:08:37.122Z,99.99
2019-01-28T12:10:29.864Z,99.99
2019-01-28T12:11:29.783Z,99.99
2019-01-28T12:13:22.573Z,99.99
2019-01-28T12:14:22.488Z,99.99
2019-01-28T12:16:15.241Z,99.99
2019-01-28T12:17:15.165Z,99.99
2019-01-28T12:19:14.078Z,99.99
2019-01-28T12:20:07.865Z,99.99
2019-01-28T12:22:00.624Z,99.99
2019-01-28T12:23:00.544Z,99.99
2019-01-28T12:24:53.322Z,99.99
2019-01-28T12:25:53.244Z,99.99
2019-01-28T12:27:46.016Z,99.99
2019-01-28T12:28:45.996Z,99.99
2019-01-28T12:30:38.709Z,99.99
2019-01-28T12:31:38.633Z,99.99
2019-01-28T12:33:31.386Z,99.99
2019-01-28T12:34:31.313Z,99.99
2019-01-28T12:36:24.093Z,99.99
2019-01-28T12:37:24.011Z,99.99
2019-01-28T12:39:16.778Z,99.99
2019-01-28T12:40:16.697Z,99.99
2019-01-28T12:42:09.722Z,99.99
2019-01-28T12:43:09.632Z,99.99
2019-01-28T12:45:02.291Z,99.99
2019-01-28T12:46:03.416Z,99.99
2019-01-28T12:47:55.141Z,99.99
2019-01-28T12:48:54.985Z,99.99
2019-01-28T12:50:47.754Z,99.99
2019-01-28T12:51:47.684Z,99.99
2019-01-28T12:53:40.442Z,99.99
2019-01-28T12:54:40.361Z,99.99
2019-01-28T12:56:33.150Z,99.99
2019-01-28T12:57:33.062Z,99.99
2019-01-28T12:59:25.861Z,99.99
2019-01-28T13:00:25.792Z,99.99
2019-01-28T13:02:18.597Z,99.99
2019-01-28T13:03:18.491Z,99.99
2019-01-28T13:05:11.284Z,99.99
2019-01-28T13:06:11.265Z,99.99
2019-01-28T13:08:03.961Z,99.99
2019-01-28T13:09:03.940Z,99.99
2019-01-28T13:10:56.661Z,99.99
2019-01-28T13:11:56.588Z,99.99
2019-01-28T13:13:49.871Z,99.99
2019-01-28T13:14:49.821Z,99.99
2019-01-28T13:16:42.561Z,99.99
2019-01-28T13:17:42.477Z,99.99
2019-01-28T13:19:35.251Z,99.99
2019-01-28T13:20:35.178Z,99.99
2019-01-28T13:22:27.961Z,99.99
2019-01-28T13:23:27.897Z,99.99
2019-01-28T13:25:20.658Z,99.99
2019-01-28T13:26:20.601Z,99.99
2019-01-28T13:28:13.349Z,99.99
2019-01-28T13:29:13.266Z,99.99
2019-01-28T13:31:06.107Z,99.99
2019-01-28T13:32:05.965Z,99.99
2019-01-28T13:33:58.754Z,99.99
2019-01-28T13:34:58.660Z,99.99
2019-01-28T13:36:51.463Z,99.99
2019-01-28T13:37:51.374Z,99.99
2019-01-28T13:39:44.174Z,99.99
2019-01-28T13:40:44.149Z,99.99
2019-01-28T13:42:36.878Z,99.99
2019-01-28T13:43:36.809Z,99.99
2019-01-28T13:45:29.616Z,99.99
2019-01-28T13:46:29.508Z,99.99
2019-01-28T13:48:22.286Z,99.99
2019-01-28T13:49:22.227Z,99.99
2019-01-28T13:51:15.014Z,99.99
2019-01-28T13:52:14.917Z,99.99
2019-01-28T13:54:07.668Z,99.99
2019-01-28T13:55:07.601Z,99.99
2019-01-28T13:57:00.395Z,99.99
2019-01-28T13:58:00.327Z,99.99
2019-01-28T13:59:53.095Z,99.99
2019-01-28T14:00:53.014Z,99.99
2019-01-28T14:02:45.828Z,99.99
2019-01-28T14:03:45.728Z,99.99
2019-01-28T14:05:38.524Z,99.99
2019-01-28T14:06:38.454Z,99.99
2019-01-28T14:08:31.225Z,99.99
2019-01-28T14:09:31.155Z,99.99
2019-01-28T14:11:23.943Z,99.99
2019-01-28T14:12:23.846Z,99.99
2019-01-28T14:14:16.602Z,99.99
2019-01-28T14:15:16.535Z,99.99
2019-01-28T14:17:09.297Z,99.99
2019-01-28T14:18:09.278Z,99.99
2019-01-28T14:20:01.989Z,99.99
2019-01-28T14:21:01.948Z,99.99
2019-01-28T14:22:54.715Z,99.99
2019-01-28T14:23:54.609Z,99.99
2019-01-28T14:25:47.398Z,99.99
2019-01-28T14:26:47.297Z,99.99
2019-01-28T14:28:40.074Z,99.99
2019-01-28T14:29:39.992Z,99.99
2019-01-28T14:31:32.784Z,99.99
2019-01-28T14:32:32.739Z,99.99
2019-01-28T14:34:25.468Z,99.99
2019-01-28T14:35:25.389Z,99.99
2019-01-28T14:37:18.188Z,99.99
2019-01-28T14:38:18.104Z,99.99
2019-01-28T14:40:10.863Z,99.99
2019-01-28T14:41:10.790Z,99.99
2019-01-28T14:43:04.414Z,99.99
2019-01-28T14:44:04.325Z,99.99
2019-01-28T14:45:57.096Z,99.99
2019-01-28T14:46:57.014Z,99.99
2019-01-28T14:48:49.798Z,99.99
2019-01-28T14:49:54.435Z,99.99
2019-01-28T14:51:42.522Z,99.99
2019-01-28T14:52:42.436Z,99.99
2019-01-28T14:54:35.189Z,99.99
2019-01-28T14:55:35.128Z,99.99
2019-01-28T14:57:27.914Z,99.99
2019-01-28T14:58:27.828Z,99.99
2019-01-28T15:00:20.591Z,99.99
2019-01-28T15:01:20.521Z,99.99
2019-01-28T15:03:13.278Z,99.99
2019-01-28T15:04:13.206Z,99.99
2019-01-28T15:06:05.962Z,99.99
2019-01-28T15:07:05.874Z,99.99
2019-01-28T15:08:58.626Z,99.99
2019-01-28T15:09:58.562Z,99.99
2019-01-28T15:11:51.383Z,99.99
2019-01-28T15:12:51.291Z,99.99
2019-01-28T15:14:44.045Z,99.99
2019-01-28T15:15:43.975Z,99.99
2019-01-28T15:17:36.837Z,99.99
2019-01-28T15:18:36.670Z,99.99
2019-01-28T15:20:29.423Z,99.99
2019-01-28T15:21:29.405Z,99.99
2019-01-28T15:23:22.113Z,99.99
2019-01-28T15:24:22.030Z,99.99
2019-01-28T15:26:14.854Z,99.99
2019-01-28T15:27:14.726Z,99.99
2019-01-28T15:29:07.476Z,99.99
2019-01-28T15:30:07.411Z,99.99
2019-01-28T15:32:00.204Z,99.99
2019-01-28T15:33:00.140Z,99.99
2019-01-28T15:34:52.873Z,99.99
2019-01-28T15:35:52.806Z,99.99
2019-01-28T15:37:45.579Z,99.99
2019-01-28T15:38:45.497Z,99.99
2019-01-28T15:40:38.273Z,99.99
2019-01-28T15:41:38.183Z,99.99
2019-01-28T15:43:30.952Z,99.99
2019-01-28T15:44:30.873Z,99.99
2019-01-28T15:46:24.706Z,99.99
2019-01-28T15:47:23.601Z,99.99
2019-01-28T15:49:16.355Z,99.99
2019-01-28T15:50:16.271Z,99.99
2019-01-28T15:52:09.049Z,99.99
2019-01-28T15:53:08.981Z,99.99
2019-01-28T15:55:01.719Z,99.99
2019-01-28T15:56:01.642Z,99.99
2019-01-28T15:57:54.499Z,99.99
2019-01-28T15:58:54.388Z,99.99
2019-01-28T16:00:47.134Z,99.99
2019-01-28T16:01:47.070Z,99.99
2019-01-28T16:03:39.873Z,99.99
2019-01-28T16:04:39.790Z,99.99
2019-01-28T16:06:32.606Z,99.99
2019-01-28T16:07:32.533Z,99.99
2019-01-28T16:09:29.070Z,99.99
2019-01-28T16:10:25.249Z,99.99
2019-01-28T16:12:18.036Z,99.99
2019-01-28T16:13:17.952Z,99.99
2019-01-28T16:15:10.790Z,99.99
2019-01-28T16:16:10.723Z,99.99
2019-01-28T16:18:08.671Z,99.99
2019-01-28T16:19:03.416Z,99.99
2019-01-28T16:20:56.195Z,99.99
2019-01-28T16:21:56.388Z,99.99
2019-01-28T16:23:48.890Z,99.99
2019-01-28T16:24:48.820Z,99.99
2019-01-28T16:26:41.551Z,99.99
2019-01-28T16:27:41.494Z,99.99
2019-01-28T16:29:34.237Z,99.99
2019-01-28T16:30:34.165Z,99.99
2019-01-28T16:32:26.941Z,99.99
2019-01-28T16:33:26.845Z,99.99
2019-01-28T16:35:19.602Z,99.99
2019-01-28T16:36:19.544Z,99.99
2019-01-28T16:38:12.323Z,99.99
2019-01-28T16:39:12.236Z,99.99
2019-01-28T16:41:04.980Z,99.99
2019-01-28T16:42:04.943Z,99.99
2019-01-28T16:43:57.679Z,99.99
2019-01-28T16:44:57.596Z,99.99
2019-01-28T16:46:50.375Z,99.99
2019-01-28T16:47:50.322Z,99.99
2019-01-28T16:49:43.061Z,99.99
2019-01-28T16:50:42.977Z,99.99
2019-01-28T16:52:35.754Z,99.99
2019-01-28T16:53:35.671Z,99.99
2019-01-28T16:55:28.429Z,99.99
2019-01-28T16:56:28.361Z,99.99
2019-01-28T16:58:21.152Z,99.99
2019-01-28T16:59:21.052Z,99.99
2019-01-28T17:01:13.795Z,99.99
2019-01-28T17:02:13.722Z,99.99
2019-01-28T17:04:06.488Z,99.99
2019-01-28T17:05:06.409Z,99.99
2019-01-28T17:06:59.187Z,99.99
2019-01-28T17:07:59.139Z,99.99
2019-01-28T17:09:51.928Z,99.99
2019-01-28T17:10:51.803Z,99.99
2019-01-28T17:12:44.562Z,99.99
2019-01-28T17:13:44.523Z,99.99
2019-01-28T17:15:37.235Z,99.99
2019-01-28T17:16:37.168Z,99.99
2019-01-28T17:18:29.928Z,99.99
2019-01-28T17:19:29.847Z,99.99
2019-01-28T17:21:22.605Z,99.99
2019-01-28T17:22:22.533Z,99.99
2019-01-28T17:24:15.321Z,99.99
2019-01-28T17:25:15.223Z,99.99
2019-01-28T17:27:07.970Z,99.99
2019-01-28T17:28:07.908Z,99.99
2019-01-28T17:30:00.718Z,99.99
2019-01-28T17:31:00.628Z,99.99
2019-01-28T17:32:53.800Z,99.99
2019-01-28T17:33:53.458Z,99.99
2019-01-28T17:35:46.109Z,99.99
2019-01-28T17:36:46.080Z,99.99
2019-01-28T17:38:38.909Z,99.99
2019-01-28T17:39:38.833Z,99.99
2019-01-28T17:41:31.584Z,99.99
2019-01-28T17:42:31.513Z,99.99
2019-01-28T17:44:24.268Z,99.99
2019-01-28T17:45:24.185Z,99.99
2019-01-28T17:47:16.957Z,99.99
2019-01-28T17:48:16.902Z,99.99
2019-01-28T17:50:10.527Z,99.99
2019-01-28T17:51:10.415Z,99.99
2019-01-28T17:53:03.182Z,99.99
2019-01-28T17:54:03.161Z,99.99
2019-01-28T17:55:55.923Z,99.99
2019-01-28T17:56:55.794Z,99.99
2019-01-28T17:58:48.625Z,99.99
2019-01-28T17:59:48.509Z,99.99
2019-01-28T18:01:41.249Z,99.99
2019-01-28T18:02:41.178Z,99.99
2019-01-28T18:04:33.947Z,99.99
2019-01-28T18:05:33.863Z,99.99
2019-01-28T18:07:26.622Z,99.99
2019-01-28T18:08:26.594Z,99.99
2019-01-28T18:10:19.327Z,99.99
2019-01-28T18:11:19.231Z,99.99
2019-01-28T18:13:12.006Z,99.99
2019-01-28T18:14:11.915Z,99.99
2019-01-28T18:16:04.685Z,99.99
2019-01-28T18:17:04.606Z,99.99
2019-01-28T18:18:57.386Z,99.99
2019-01-28T18:19:57.302Z,99.99
2019-01-28T18:21:50.049Z,99.99
2019-01-28T18:22:49.987Z,99.99
2019-01-28T18:24:42.755Z,99.99
2019-01-28T18:25:42.681Z,99.99
2019-01-28T18:27:35.444Z,99.99
2019-01-28T18:28:35.376Z,99.99
2019-01-28T18:30:28.162Z,99.99
2019-01-28T18:31:28.061Z,99.99
2019-01-28T18:33:20.919Z,99.99